createdAt,value
2018-01-30T00:00:55.245Z,11.40
2018-01-30T00:01:55.204Z,11.60
2018-01-30T00:02:55.167Z,12.10
2018-01-30T00:03:55.128Z,12.00
2018-01-30T00:04:55.093Z,12.80
2018-01-30T00:05:55.089Z,12.20
2018-01-30T00:06:55.012Z,12.50
2018-01-30T00:07:54.968Z,13.00
2018-01-30T00:08:54.940Z,13.50
2018-01-30T00:09:54.949Z,13.50
2018-01-30T00:10:54.877Z,14.60
2018-01-30T00:11:54.809Z,14.10
2018-01-30T00:12:54.770Z,14.30
2018-01-30T00:13:54.732Z,14.70
2018-01-30T00:14:54.693Z,15.00
2018-01-30T00:15:54.651Z,15.20
2018-01-30T00:16:54.612Z,14.20
2018-01-30T00:17:54.572Z,15.40
2018-01-30T00:18:54.541Z,15.10
2018-01-30T00:19:54.493Z,15.20
2018-01-30T00:20:54.457Z,15.20
2018-01-30T00:21:54.414Z,16.20
2018-01-30T00:22:54.379Z,16.00
2018-01-30T00:23:54.344Z,15.40
2018-01-30T00:24:54.295Z,15.60
2018-01-30T00:25:54.254Z,17.30
2018-01-30T00:26:54.248Z,16.60
2018-01-30T00:27:54.176Z,17.50
2018-01-30T00:28:54.139Z,17.80
2018-01-30T00:29:54.108Z,19.10
2018-01-30T00:30:54.062Z,19.30
2018-01-30T00:31:54.032Z,20.70
2018-01-30T00:32:53.979Z,20.50
2018-01-30T00:33:53.939Z,20.00
2018-01-30T00:34:53.898Z,20.90
2018-01-30T00:35:53.872Z,21.50
2018-01-30T00:36:53.825Z,21.40
2018-01-30T00:37:53.779Z,22.00
2018-01-30T00:38:53.739Z,22.20
2018-01-30T00:39:53.740Z,24.90
2018-01-30T00:40:53.660Z,24.30
2018-01-30T00:41:53.627Z,25.90
2018-01-30T00:42:54.462Z,24.70
2018-01-30T00:43:53.546Z,25.50
2018-01-30T00:44:53.503Z,23.50
2018-01-30T00:45:53.461Z,24.40
2018-01-30T00:46:53.424Z,24.80
2018-01-30T00:47:53.391Z,25.80
2018-01-30T00:48:53.344Z,24.70
2018-01-30T00:49:53.308Z,24.60
2018-01-30T00:50:53.290Z,25.80
2018-01-30T00:51:53.226Z,25.70
2018-01-30T00:52:53.187Z,25.00
2018-01-30T00:53:53.204Z,26.40
2018-01-30T00:54:53.106Z,26.90
2018-01-30T00:55:53.098Z,27.80
2018-01-30T00:56:53.029Z,27.40
2018-01-30T00:57:53.009Z,26.60
2018-01-30T00:58:52.960Z,28.50
2018-01-30T00:59:52.908Z,29.30
2018-01-30T01:00:52.905Z,30.00
2018-01-30T01:01:52.851Z,29.70
2018-01-30T01:02:52.789Z,31.30
2018-01-30T01:03:52.772Z,31.80
2018-01-30T01:04:52.711Z,32.30
2018-01-30T01:05:52.671Z,33.00
2018-01-30T01:06:52.638Z,33.10
2018-01-30T01:07:52.592Z,31.80
2018-01-30T01:08:52.551Z,32.90
2018-01-30T01:09:52.512Z,32.10
2018-01-30T01:10:52.470Z,33.20
2018-01-30T01:11:52.432Z,32.50
2018-01-30T01:12:52.401Z,32.90
2018-01-30T01:13:52.389Z,33.40
2018-01-30T01:14:52.314Z,34.80
2018-01-30T01:15:52.274Z,34.60
2018-01-30T01:16:52.253Z,36.80
2018-01-30T01:17:52.192Z,38.00
2018-01-30T01:18:52.175Z,35.30
2018-01-30T01:19:52.113Z,34.60
2018-01-30T01:20:52.075Z,35.10
2018-01-30T01:21:52.033Z,35.70
2018-01-30T01:22:51.994Z,33.40
2018-01-30T01:23:51.955Z,35.20
2018-01-30T01:24:51.914Z,33.20
2018-01-30T01:25:51.884Z,33.80
2018-01-30T01:26:51.837Z,32.20
2018-01-30T01:27:51.799Z,32.50
2018-01-30T01:28:51.755Z,32.00
2018-01-30T01:29:51.734Z,32.80
2018-01-30T01:30:51.674Z,32.60
2018-01-30T01:31:51.638Z,30.60
2018-01-30T01:32:51.628Z,32.50
2018-01-30T01:33:51.562Z,31.90
2018-01-30T01:34:51.516Z,31.00
2018-01-30T01:35:51.479Z,31.70
2018-01-30T01:36:51.435Z,31.50
2018-01-30T01:37:51.404Z,32.30
2018-01-30T01:38:51.374Z,32.50
2018-01-30T01:39:51.320Z,31.50
2018-01-30T01:40:51.294Z,32.00
2018-01-30T01:41:51.243Z,31.80
2018-01-30T01:42:51.232Z,31.80
2018-01-30T01:43:51.157Z,31.50
2018-01-30T01:44:51.129Z,29.80
2018-01-30T01:45:51.078Z,30.30
2018-01-30T01:46:51.043Z,30.40
2018-01-30T01:47:50.999Z,30.00
2018-01-30T01:48:50.960Z,29.40
2018-01-30T01:49:50.922Z,30.00
2018-01-30T01:50:50.880Z,29.20
2018-01-30T01:51:50.851Z,30.80
2018-01-30T01:52:50.797Z,30.50
2018-01-30T01:53:50.795Z,31.20
2018-01-30T01:54:50.731Z,31.60
2018-01-30T01:55:50.691Z,31.30
2018-01-30T01:56:50.641Z,32.00
2018-01-30T01:57:50.601Z,32.00
2018-01-30T01:58:50.571Z,31.20
2018-01-30T01:59:50.525Z,33.40
2018-01-30T02:00:50.480Z,32.10
2018-01-30T02:01:50.452Z,31.10
2018-01-30T02:02:50.403Z,31.90
2018-01-30T02:03:50.363Z,32.60
2018-01-30T02:04:50.335Z,32.20
2018-01-30T02:05:50.302Z,33.10
2018-01-30T02:06:50.243Z,32.40
2018-01-30T02:07:50.201Z,32.10
2018-01-30T02:08:50.176Z,32.40
2018-01-30T02:09:50.123Z,34.50
2018-01-30T02:10:50.087Z,33.40
2018-01-30T02:11:50.049Z,32.00
2018-01-30T02:12:50.003Z,33.00
2018-01-30T02:13:49.968Z,33.50
2018-01-30T02:14:49.922Z,32.40
2018-01-30T02:15:49.885Z,33.40
2018-01-30T02:16:49.856Z,33.40
2018-01-30T02:17:49.866Z,31.60
2018-01-30T02:18:49.767Z,32.90
2018-01-30T02:19:49.725Z,33.00
2018-01-30T02:20:49.686Z,33.00
2018-01-30T02:21:49.662Z,33.90
2018-01-30T02:22:49.603Z,33.80
2018-01-30T02:23:49.570Z,35.20
2018-01-30T02:24:49.528Z,35.90
2018-01-30T02:25:49.486Z,35.80
2018-01-30T02:26:49.447Z,34.30
2018-01-30T02:27:49.407Z,36.00
2018-01-30T02:28:49.379Z,36.60
2018-01-30T02:29:49.357Z,35.60
2018-01-30T02:30:49.316Z,35.30
2018-01-30T02:31:49.264Z,34.80
2018-01-30T02:32:49.221Z,34.60
2018-01-30T02:33:49.184Z,35.00
2018-01-30T02:34:49.152Z,34.00
2018-01-30T02:35:49.090Z,35.10
2018-01-30T02:36:49.048Z,34.40
2018-01-30T02:37:49.045Z,35.40
2018-01-30T02:38:48.968Z,33.40
2018-01-30T02:39:48.951Z,34.10
2018-01-30T02:40:48.894Z,36.60
2018-01-30T02:41:48.850Z,37.00
2018-01-30T02:42:48.811Z,34.40
2018-01-30T02:43:48.777Z,34.70
2018-01-30T02:44:48.728Z,33.60
2018-01-30T02:45:48.695Z,34.00
2018-01-30T02:46:48.655Z,34.60
2018-01-30T02:47:48.649Z,33.90
2018-01-30T02:48:48.574Z,33.40
2018-01-30T02:49:48.539Z,33.70
2018-01-30T02:50:48.512Z,32.60
2018-01-30T02:51:48.449Z,32.10
2018-01-30T02:52:48.424Z,31.70
2018-01-30T02:53:48.372Z,32.70
2018-01-30T02:54:48.338Z,33.70
2018-01-30T02:55:48.323Z,32.00
2018-01-30T02:56:48.249Z,33.20
2018-01-30T02:57:48.208Z,34.00
2018-01-30T02:58:48.170Z,35.00
2018-01-30T02:59:48.154Z,32.90
2018-01-30T03:00:48.102Z,33.30
2018-01-30T03:01:48.050Z,34.10
2018-01-30T03:02:48.019Z,34.50
2018-01-30T03:03:47.977Z,33.00
2018-01-30T03:04:47.933Z,33.10
2018-01-30T03:05:47.909Z,35.10
2018-01-30T03:06:47.854Z,34.00
2018-01-30T03:07:47.810Z,33.20
2018-01-30T03:08:47.771Z,34.80
2018-01-30T03:09:47.733Z,32.20
2018-01-30T03:10:47.708Z,33.70
2018-01-30T03:11:47.651Z,33.50
2018-01-30T03:12:47.613Z,33.10
2018-01-30T03:13:47.600Z,34.90
2018-01-30T03:14:47.536Z,33.10
2018-01-30T03:15:47.493Z,33.80
2018-01-30T03:16:47.473Z,32.80
2018-01-30T03:17:47.412Z,31.90
2018-01-30T03:18:47.375Z,32.00
2018-01-30T03:19:47.335Z,32.10
2018-01-30T03:20:47.319Z,32.00
2018-01-30T03:21:47.266Z,30.30
2018-01-30T03:22:47.222Z,31.50
2018-01-30T03:23:47.175Z,30.60
2018-01-30T03:24:47.144Z,31.80
2018-01-30T03:25:47.094Z,31.70
2018-01-30T03:26:47.053Z,30.50
2018-01-30T03:27:47.020Z,29.90
2018-01-30T03:28:46.973Z,30.60
2018-01-30T03:29:46.933Z,30.40
2018-01-30T03:30:46.894Z,30.90
2018-01-30T03:31:46.854Z,30.00
2018-01-30T03:32:46.817Z,29.40
2018-01-30T03:33:46.772Z,31.60
2018-01-30T03:34:46.733Z,29.90
2018-01-30T03:35:46.737Z,30.40
2018-01-30T03:36:46.654Z,31.00
2018-01-30T03:37:46.660Z,30.20
2018-01-30T03:38:46.578Z,29.10
2018-01-30T03:39:46.547Z,31.30
2018-01-30T03:40:46.500Z,30.60
2018-01-30T03:41:46.456Z,29.20
2018-01-30T03:42:46.412Z,29.40
2018-01-30T03:43:46.373Z,29.70
2018-01-30T03:44:46.336Z,29.80
2018-01-30T03:45:46.312Z,29.00
2018-01-30T03:46:46.267Z,29.80
2018-01-30T03:47:46.221Z,29.40
2018-01-30T03:48:46.176Z,28.30
2018-01-30T03:49:46.153Z,30.90
2018-01-30T03:50:46.105Z,28.30
2018-01-30T03:51:46.066Z,28.70
2018-01-30T03:52:46.023Z,27.00
2018-01-30T03:53:45.975Z,30.30
2018-01-30T03:54:45.943Z,27.10
2018-01-30T03:55:45.921Z,28.50
2018-01-30T03:56:45.867Z,28.80
2018-01-30T03:57:45.814Z,27.80
2018-01-30T03:58:45.776Z,26.50
2018-01-30T03:59:45.740Z,29.30
2018-01-30T04:00:45.712Z,28.20
2018-01-30T04:01:45.695Z,27.50
2018-01-30T04:02:45.626Z,28.70
2018-01-30T04:03:45.578Z,28.10
2018-01-30T04:04:45.533Z,26.80
2018-01-30T04:05:45.499Z,27.20
2018-01-30T04:06:45.452Z,26.60
2018-01-30T04:07:45.420Z,26.30
2018-01-30T04:08:45.387Z,26.60
2018-01-30T04:09:45.356Z,26.50
2018-01-30T04:10:45.294Z,26.10
2018-01-30T04:11:45.257Z,27.70
2018-01-30T04:12:45.214Z,26.10
2018-01-30T04:13:45.176Z,27.70
2018-01-30T04:14:45.139Z,28.20
2018-01-30T04:15:45.095Z,29.40
2018-01-30T04:16:45.073Z,27.60
2018-01-30T04:17:45.031Z,26.60
2018-01-30T04:18:44.972Z,27.30
2018-01-30T04:19:44.932Z,28.90
2018-01-30T04:20:44.926Z,29.20
2018-01-30T04:21:44.888Z,30.60
2018-01-30T04:22:44.830Z,29.00
2018-01-30T04:23:44.773Z,28.90
2018-01-30T04:24:44.754Z,29.60
2018-01-30T04:25:44.704Z,29.60
2018-01-30T04:26:44.659Z,29.20
2018-01-30T04:27:44.633Z,31.50
2018-01-30T04:28:44.586Z,31.80
2018-01-30T04:29:44.542Z,32.00
2018-01-30T04:30:45.457Z,30.80
2018-01-30T04:31:44.959Z,30.40
2018-01-30T04:32:44.421Z,31.60
2018-01-30T04:33:44.374Z,31.20
2018-01-30T04:34:44.332Z,30.80
2018-01-30T04:35:44.295Z,33.70
2018-01-30T04:36:44.251Z,33.50
2018-01-30T04:37:44.213Z,33.00
2018-01-30T04:38:44.212Z,33.80
2018-01-30T04:39:44.151Z,33.00
2018-01-30T04:40:44.093Z,33.30
2018-01-30T04:41:44.071Z,34.20
2018-01-30T04:42:44.013Z,32.60
2018-01-30T04:43:43.995Z,33.20
2018-01-30T04:44:43.930Z,31.90
2018-01-30T04:45:43.889Z,32.20
2018-01-30T04:46:43.852Z,32.40
2018-01-30T04:47:43.810Z,33.00
2018-01-30T04:48:43.780Z,31.60
2018-01-30T04:49:43.730Z,32.20
2018-01-30T04:50:43.689Z,32.80
2018-01-30T04:51:43.650Z,32.70
2018-01-30T04:52:43.627Z,31.40
2018-01-30T04:53:43.579Z,32.10
2018-01-30T04:54:43.533Z,34.00
2018-01-30T04:55:43.506Z,31.80
2018-01-30T04:56:43.468Z,31.80
2018-01-30T04:57:43.426Z,33.60
2018-01-30T04:58:43.373Z,33.20
2018-01-30T04:59:43.340Z,33.40
2018-01-30T05:00:43.288Z,32.60
2018-01-30T05:01:43.250Z,32.00
2018-01-30T05:02:43.206Z,33.20
2018-01-30T05:03:43.497Z,33.20
2018-01-30T05:04:43.132Z,34.40
2018-01-30T05:05:43.096Z,33.60
2018-01-30T05:06:43.048Z,33.50
2018-01-30T05:07:43.028Z,32.90
2018-01-30T05:08:42.973Z,33.90
2018-01-30T05:09:42.926Z,33.60
2018-01-30T05:10:42.889Z,34.80
2018-01-30T05:11:42.897Z,36.40
2018-01-30T05:12:42.810Z,34.20
2018-01-30T05:13:42.767Z,35.30
2018-01-30T05:14:42.754Z,33.80
2018-01-30T05:15:42.695Z,34.50
2018-01-30T05:16:42.657Z,35.30
2018-01-30T05:17:42.606Z,33.90
2018-01-30T05:18:42.565Z,31.20
2018-01-30T05:19:42.524Z,31.30
2018-01-30T05:20:42.523Z,31.60
2018-01-30T05:21:42.442Z,31.10
2018-01-30T05:22:42.406Z,32.10
2018-01-30T05:23:42.375Z,31.90
2018-01-30T05:24:42.327Z,31.90
2018-01-30T05:25:42.279Z,32.50
2018-01-30T05:26:42.242Z,33.20
2018-01-30T05:27:42.202Z,35.90
2018-01-30T05:28:42.200Z,35.20
2018-01-30T05:29:42.126Z,36.10
2018-01-30T05:30:42.083Z,39.40
2018-01-30T05:31:42.041Z,37.10
2018-01-30T05:32:41.997Z,37.40
2018-01-30T05:33:41.961Z,35.70
2018-01-30T05:34:41.923Z,34.50
2018-01-30T05:35:41.878Z,37.00
2018-01-30T05:36:41.838Z,36.10
2018-01-30T05:37:41.797Z,37.70
2018-01-30T05:38:41.756Z,38.10
2018-01-30T05:39:41.717Z,36.20
2018-01-30T05:40:41.683Z,38.40
2018-01-30T05:41:41.635Z,37.50
2018-01-30T05:42:41.593Z,36.70
2018-01-30T05:43:41.561Z,37.80
2018-01-30T05:44:41.512Z,39.20
2018-01-30T05:45:41.471Z,37.00
2018-01-30T05:46:41.433Z,38.10
2018-01-30T05:47:41.393Z,38.20
2018-01-30T05:48:41.356Z,38.50
2018-01-30T05:49:41.313Z,40.30
2018-01-30T05:50:41.277Z,37.30
2018-01-30T05:51:41.231Z,36.50
2018-01-30T05:52:41.188Z,36.20
2018-01-30T05:53:41.155Z,36.60
2018-01-30T05:54:41.133Z,35.20
2018-01-30T05:55:41.070Z,34.60
2018-01-30T05:56:41.048Z,35.40
2018-01-30T05:57:40.988Z,35.00
2018-01-30T05:58:40.980Z,37.50
2018-01-30T05:59:40.907Z,35.00
2018-01-30T06:00:40.865Z,37.00
2018-01-30T06:01:40.826Z,36.00
2018-01-30T06:02:40.792Z,36.20
2018-01-30T06:03:40.742Z,34.80
2018-01-30T06:04:40.703Z,34.00
2018-01-30T06:05:40.677Z,34.50
2018-01-30T06:06:40.623Z,35.00
2018-01-30T06:07:40.588Z,35.60
2018-01-30T06:08:40.541Z,35.90
2018-01-30T06:09:40.498Z,37.10
2018-01-30T06:10:40.469Z,37.60
2018-01-30T06:11:40.419Z,37.60
2018-01-30T06:12:40.378Z,37.00
2018-01-30T06:13:40.340Z,35.60
2018-01-30T06:14:40.297Z,35.60
2018-01-30T06:15:40.259Z,36.10
2018-01-30T06:16:40.216Z,37.70
2018-01-30T06:17:40.173Z,38.60
2018-01-30T06:18:40.161Z,41.40
2018-01-30T06:19:40.122Z,40.40
2018-01-30T06:20:40.056Z,39.50
2018-01-30T06:21:40.013Z,39.10
2018-01-30T06:22:39.974Z,38.80
2018-01-30T06:23:39.931Z,40.60
2018-01-30T06:24:39.891Z,38.30
2018-01-30T06:25:39.858Z,38.70
2018-01-30T06:26:39.845Z,36.80
2018-01-30T06:27:39.770Z,37.80
2018-01-30T06:28:39.727Z,38.80
2018-01-30T06:29:39.690Z,38.10
2018-01-30T06:30:39.649Z,40.00
2018-01-30T06:31:39.624Z,43.50
2018-01-30T06:32:39.565Z,44.80
2018-01-30T06:33:39.525Z,45.50
2018-01-30T06:34:39.485Z,45.80
2018-01-30T06:35:39.446Z,47.10
2018-01-30T06:36:39.409Z,48.00
2018-01-30T06:37:39.373Z,47.30
2018-01-30T06:38:39.323Z,48.40
2018-01-30T06:39:39.287Z,47.00
2018-01-30T06:40:39.242Z,48.30
2018-01-30T06:41:39.204Z,49.20
2018-01-30T06:42:39.160Z,47.10
2018-01-30T06:43:39.122Z,47.80
2018-01-30T06:44:39.081Z,46.70
2018-01-30T06:45:39.058Z,44.40
2018-01-30T06:46:38.996Z,43.20
2018-01-30T06:47:38.955Z,41.20
2018-01-30T06:48:38.918Z,42.90
2018-01-30T06:49:38.874Z,42.70
2018-01-30T06:50:38.834Z,42.90
2018-01-30T06:51:38.794Z,44.60
2018-01-30T06:52:38.767Z,44.70
2018-01-30T06:53:38.712Z,47.90
2018-01-30T06:54:38.674Z,49.20
2018-01-30T06:55:38.644Z,47.90
2018-01-30T06:56:38.595Z,44.10
2018-01-30T06:57:38.555Z,46.80
2018-01-30T06:58:38.510Z,46.90
2018-01-30T06:59:38.469Z,47.60
2018-01-30T07:00:38.433Z,44.40
2018-01-30T07:01:38.388Z,44.80
2018-01-30T07:02:38.347Z,43.80
2018-01-30T07:03:38.307Z,43.40
2018-01-30T07:04:38.268Z,45.50
2018-01-30T07:05:38.226Z,43.80
2018-01-30T07:06:38.189Z,43.50
2018-01-30T07:07:38.146Z,42.70
2018-01-30T07:08:38.107Z,42.40
2018-01-30T07:09:38.065Z,43.90
2018-01-30T07:10:38.225Z,43.10
2018-01-30T07:11:37.983Z,43.20
2018-01-30T07:12:37.955Z,42.00
2018-01-30T07:13:37.914Z,42.10
2018-01-30T07:14:37.862Z,39.90
2018-01-30T07:15:37.822Z,41.50
2018-01-30T07:16:37.781Z,42.90
2018-01-30T07:17:37.738Z,38.70
2018-01-30T07:18:37.698Z,42.70
2018-01-30T07:19:37.669Z,43.10
2018-01-30T07:20:37.618Z,41.30
2018-01-30T07:21:37.578Z,41.10
2018-01-30T07:22:37.536Z,41.90
2018-01-30T07:23:37.499Z,41.80
2018-01-30T07:24:37.462Z,40.60
2018-01-30T07:25:37.414Z,39.70
2018-01-30T07:26:37.376Z,42.20
2018-01-30T07:27:37.342Z,40.00
2018-01-30T07:28:37.295Z,40.80
2018-01-30T07:29:37.257Z,38.00
2018-01-30T07:30:37.227Z,40.00
2018-01-30T07:31:37.175Z,39.00
2018-01-30T07:32:37.136Z,38.20
2018-01-30T07:33:37.094Z,36.60
2018-01-30T07:34:37.054Z,35.40
2018-01-30T07:35:37.014Z,35.70
2018-01-30T07:36:36.982Z,35.60
2018-01-30T07:37:36.933Z,34.00
2018-01-30T07:38:36.895Z,34.10
2018-01-30T07:39:36.852Z,33.40
2018-01-30T07:40:36.814Z,32.30
2018-01-30T07:41:36.770Z,31.10
2018-01-30T07:42:36.744Z,31.80
2018-01-30T07:43:36.692Z,29.70
2018-01-30T07:44:36.651Z,30.90
2018-01-30T07:45:36.614Z,27.40
2018-01-30T07:46:36.572Z,29.40
2018-01-30T07:47:36.532Z,28.70
2018-01-30T07:48:36.504Z,28.70
2018-01-30T07:49:36.452Z,29.30
2018-01-30T07:50:36.413Z,28.40
2018-01-30T07:51:36.374Z,28.50
2018-01-30T07:52:36.334Z,28.30
2018-01-30T07:53:36.295Z,27.50
2018-01-30T07:54:36.264Z,27.10
2018-01-30T07:55:36.218Z,26.80
2018-01-30T07:56:36.180Z,27.60
2018-01-30T07:57:36.137Z,26.20
2018-01-30T07:58:36.097Z,26.40
2018-01-30T07:59:36.061Z,23.90
2018-01-30T08:00:36.021Z,24.50
2018-01-30T08:01:35.979Z,24.60
2018-01-30T08:02:35.949Z,23.00
2018-01-30T08:03:35.902Z,26.40
2018-01-30T08:04:35.866Z,24.50
2018-01-30T08:05:35.826Z,25.40
2018-01-30T08:06:35.787Z,23.60
2018-01-30T08:07:35.749Z,24.00
2018-01-30T08:08:35.726Z,23.10
2018-01-30T08:09:35.674Z,22.30
2018-01-30T08:10:35.635Z,23.50
2018-01-30T08:11:35.599Z,22.80
2018-01-30T08:12:35.561Z,21.80
2018-01-30T08:13:35.524Z,21.90
2018-01-30T08:14:35.488Z,22.00
2018-01-30T08:15:35.454Z,21.70
2018-01-30T08:16:35.412Z,22.90
2018-01-30T08:17:35.376Z,19.60
2018-01-30T08:18:35.344Z,21.40
2018-01-30T08:19:35.306Z,22.10
2018-01-30T08:20:35.277Z,22.00
2018-01-30T08:21:35.232Z,21.30
2018-01-30T08:22:35.196Z,22.90
2018-01-30T08:23:35.161Z,22.70
2018-01-30T08:24:35.126Z,22.50
2018-01-30T08:25:35.087Z,22.70
2018-01-30T08:26:35.064Z,22.90
2018-01-30T08:27:35.022Z,22.70
2018-01-30T08:28:34.986Z,22.20
2018-01-30T08:29:34.950Z,23.60
2018-01-30T08:30:34.913Z,24.10
2018-01-30T08:31:34.878Z,23.40
2018-01-30T08:32:34.844Z,23.80
2018-01-30T08:33:34.813Z,23.20
2018-01-30T08:34:34.777Z,23.20
2018-01-30T08:35:34.742Z,23.90
2018-01-30T08:36:34.708Z,22.80
2018-01-30T08:37:34.680Z,23.30
2018-01-30T08:38:34.637Z,23.90
2018-01-30T08:39:34.617Z,22.10
2018-01-30T08:40:34.571Z,23.10
2018-01-30T08:41:34.541Z,23.00
2018-01-30T08:42:34.531Z,22.50
2018-01-30T08:43:34.474Z,21.20
2018-01-30T08:44:34.436Z,21.40
2018-01-30T08:45:34.405Z,22.60
2018-01-30T08:46:34.375Z,23.70
2018-01-30T08:47:34.340Z,21.10
2018-01-30T08:48:34.312Z,21.30
2018-01-30T08:49:34.274Z,22.30
2018-01-30T08:50:34.245Z,21.70
2018-01-30T08:51:34.212Z,21.40
2018-01-30T08:52:34.255Z,21.50
2018-01-30T08:53:34.163Z,20.50
2018-01-30T08:54:34.126Z,21.60
2018-01-30T08:55:34.088Z,22.70
2018-01-30T08:56:34.059Z,20.70
2018-01-30T08:57:34.032Z,22.30
2018-01-30T08:58:33.997Z,21.00
2018-01-30T08:59:33.970Z,20.50
2018-01-30T09:00:33.939Z,21.00
2018-01-30T09:01:33.909Z,18.80
2018-01-30T09:02:33.882Z,19.70
2018-01-30T09:03:33.869Z,18.70
2018-01-30T09:04:33.830Z,18.30
2018-01-30T09:05:33.795Z,18.10
2018-01-30T09:06:33.771Z,17.20
2018-01-30T09:07:33.741Z,16.40
2018-01-30T09:08:33.712Z,14.90
2018-01-30T09:09:33.699Z,15.00
2018-01-30T09:10:33.662Z,14.40
2018-01-30T09:11:33.631Z,15.60
2018-01-30T09:12:33.602Z,15.20
2018-01-30T09:13:33.572Z,16.20
2018-01-30T09:14:33.548Z,16.10
2018-01-30T09:15:33.538Z,15.10
2018-01-30T09:16:33.494Z,16.30
2018-01-30T09:17:33.466Z,15.80
2018-01-30T09:18:33.439Z,16.80
2018-01-30T09:19:33.416Z,16.00
2018-01-30T09:20:33.386Z,15.90
2018-01-30T09:21:33.370Z,15.60
2018-01-30T09:22:33.337Z,16.20
2018-01-30T09:23:33.310Z,16.80
2018-01-30T09:24:33.286Z,16.50
2018-01-30T09:25:33.261Z,15.50
2018-01-30T09:26:33.236Z,15.20
2018-01-30T09:27:33.210Z,14.40
2018-01-30T09:28:33.203Z,14.90
2018-01-30T09:29:33.165Z,14.90
2018-01-30T09:30:33.136Z,14.60
2018-01-30T09:31:33.108Z,15.20
2018-01-30T09:32:33.084Z,14.30
2018-01-30T09:33:33.058Z,15.60
2018-01-30T09:34:33.041Z,14.80
2018-01-30T09:35:33.007Z,14.50
2018-01-30T09:36:32.982Z,14.20
2018-01-30T09:37:32.957Z,14.60
2018-01-30T09:38:32.929Z,14.70
2018-01-30T09:39:32.905Z,14.30
2018-01-30T09:40:32.886Z,14.60
2018-01-30T09:41:32.853Z,15.20
2018-01-30T09:42:32.824Z,14.70
2018-01-30T09:43:32.802Z,14.30
2018-01-30T09:44:32.772Z,14.70
2018-01-30T09:45:32.745Z,14.50
2018-01-30T09:46:32.721Z,15.70
2018-01-30T09:47:32.691Z,15.20
2018-01-30T09:48:32.675Z,16.00
2018-01-30T09:49:32.635Z,15.40
2018-01-30T09:50:32.610Z,15.10
2018-01-30T09:51:32.584Z,15.10
2018-01-30T09:52:32.556Z,15.40
2018-01-30T09:53:32.547Z,15.00
2018-01-30T09:54:32.501Z,14.50
2018-01-30T09:55:32.481Z,15.00
2018-01-30T09:56:32.450Z,15.60
2018-01-30T09:57:32.424Z,15.60
2018-01-30T09:58:32.423Z,14.80
2018-01-30T09:59:32.375Z,15.90
2018-01-30T10:00:32.359Z,13.90
2018-01-30T10:01:32.325Z,14.90
2018-01-30T10:02:32.302Z,14.50
2018-01-30T10:03:32.318Z,16.20
2018-01-30T10:04:32.254Z,14.40
2018-01-30T10:05:32.228Z,15.30
2018-01-30T10:06:32.212Z,14.70
2018-01-30T10:07:32.181Z,13.90
2018-01-30T10:08:32.161Z,15.00
2018-01-30T10:09:32.135Z,15.90
2018-01-30T10:10:32.133Z,16.10
2018-01-30T10:11:32.083Z,15.10
2018-01-30T10:12:32.059Z,16.20
2018-01-30T10:13:32.046Z,16.10
2018-01-30T10:14:32.005Z,15.50
2018-01-30T10:15:31.984Z,16.50
2018-01-30T10:16:31.958Z,15.90
2018-01-30T10:17:31.931Z,17.30
2018-01-30T10:18:31.903Z,15.90
2018-01-30T10:19:31.880Z,16.40
2018-01-30T10:20:31.844Z,17.00
2018-01-30T10:21:31.818Z,17.10
2018-01-30T10:22:31.793Z,16.30
2018-01-30T10:23:31.760Z,16.40
2018-01-30T10:24:31.739Z,16.20
2018-01-30T10:25:31.715Z,16.20
2018-01-30T10:26:31.672Z,16.60
2018-01-30T10:27:31.644Z,15.40
2018-01-30T10:28:31.615Z,15.90
2018-01-30T10:29:31.583Z,17.10
2018-01-30T10:30:31.555Z,16.90
2018-01-30T10:31:31.529Z,17.40
2018-01-30T10:32:31.507Z,17.60
2018-01-30T10:33:31.464Z,17.80
2018-01-30T10:34:31.438Z,17.00
2018-01-30T10:35:31.409Z,16.80
2018-01-30T10:36:31.375Z,16.90
2018-01-30T10:37:31.356Z,17.50
2018-01-30T10:38:31.322Z,17.00
2018-01-30T10:39:31.290Z,17.00
2018-01-30T10:40:31.267Z,17.20
2018-01-30T10:41:31.239Z,17.90
2018-01-30T10:42:31.210Z,15.60
2018-01-30T10:43:31.197Z,16.20
2018-01-30T10:44:31.159Z,16.50
2018-01-30T10:45:31.130Z,17.00
2018-01-30T10:46:31.110Z,16.80
2018-01-30T10:47:31.079Z,16.30
2018-01-30T10:48:31.057Z,16.00
2018-01-30T10:49:31.036Z,14.90
2018-01-30T10:50:31.008Z,14.90
2018-01-30T10:51:31.003Z,15.20
2018-01-30T10:52:30.957Z,15.90
2018-01-30T10:53:30.933Z,17.40
2018-01-30T10:54:30.911Z,17.00
2018-01-30T10:55:30.884Z,14.60
2018-01-30T10:56:30.861Z,14.10
2018-01-30T10:57:30.833Z,15.90
2018-01-30T10:58:30.825Z,15.20
2018-01-30T10:59:30.787Z,15.20
2018-01-30T11:00:30.762Z,13.60
2018-01-30T11:01:30.734Z,13.20
2018-01-30T11:02:30.731Z,14.50
2018-01-30T11:03:30.685Z,15.20
2018-01-30T11:04:30.666Z,16.90
2018-01-30T11:05:30.630Z,18.30
2018-01-30T11:06:30.603Z,18.10
2018-01-30T11:07:30.574Z,17.20
2018-01-30T11:08:30.550Z,17.40
2018-01-30T11:09:30.526Z,15.40
2018-01-30T11:10:30.495Z,14.20
2018-01-30T11:11:30.476Z,14.10
2018-01-30T11:12:30.442Z,14.10
2018-01-30T11:13:30.411Z,14.30
2018-01-30T11:14:30.389Z,13.20
2018-01-30T11:15:30.358Z,12.60
2018-01-30T11:16:30.330Z,14.90
2018-01-30T11:17:30.309Z,13.90
2018-01-30T11:18:30.275Z,13.70
2018-01-30T11:19:30.248Z,15.10
2018-01-30T11:20:30.216Z,15.00
2018-01-30T11:21:30.191Z,15.30
2018-01-30T11:22:30.164Z,15.40
2018-01-30T11:23:30.141Z,15.60
2018-01-30T11:24:30.108Z,16.60
2018-01-30T11:25:30.082Z,16.80
2018-01-30T11:26:30.057Z,16.00
2018-01-30T11:27:30.030Z,16.20
2018-01-30T11:28:30.011Z,16.70
2018-01-30T11:29:29.980Z,15.80
2018-01-30T11:30:29.952Z,16.40
2018-01-30T11:31:29.925Z,14.40
2018-01-30T11:32:29.901Z,15.30
2018-01-30T11:33:29.873Z,15.10
2018-01-30T11:34:29.848Z,15.70
2018-01-30T11:35:29.824Z,15.10
2018-01-30T11:36:29.803Z,14.10
2018-01-30T11:37:29.770Z,13.30
2018-01-30T11:38:29.743Z,14.50
2018-01-30T11:39:29.718Z,14.30
2018-01-30T11:40:29.689Z,14.90
2018-01-30T11:41:29.664Z,15.40
2018-01-30T11:42:29.642Z,15.00
2018-01-30T11:43:29.611Z,14.30
2018-01-30T11:44:29.586Z,15.00
2018-01-30T11:45:29.561Z,15.00
2018-01-30T11:46:29.537Z,14.40
2018-01-30T11:47:29.516Z,13.80
2018-01-30T11:48:29.482Z,14.60
2018-01-30T11:49:29.462Z,13.60
2018-01-30T11:50:29.434Z,14.30
2018-01-30T11:51:29.413Z,16.10
2018-01-30T11:52:29.388Z,14.10
2018-01-30T11:53:29.367Z,14.30
2018-01-30T11:54:29.338Z,14.80
2018-01-30T11:55:29.343Z,14.00
2018-01-30T11:56:29.288Z,14.50
2018-01-30T11:57:29.264Z,15.20
2018-01-30T11:58:29.246Z,14.20
2018-01-30T11:59:29.249Z,14.30
2018-01-30T12:00:29.207Z,14.50
2018-01-30T12:01:29.172Z,14.60
2018-01-30T12:02:29.152Z,15.60
2018-01-30T12:03:29.126Z,15.20
2018-01-30T12:04:29.105Z,15.30
2018-01-30T12:05:29.082Z,15.50
2018-01-30T12:06:29.064Z,14.60
2018-01-30T12:07:29.040Z,15.20
2018-01-30T12:08:29.011Z,13.80
2018-01-30T12:09:28.986Z,13.10
2018-01-30T12:10:28.965Z,14.00
2018-01-30T12:11:28.943Z,13.30
2018-01-30T12:12:28.920Z,13.60
2018-01-30T12:13:28.894Z,13.40
2018-01-30T12:14:28.867Z,14.10
2018-01-30T12:15:28.844Z,14.60
2018-01-30T12:16:28.823Z,13.90
2018-01-30T12:17:28.795Z,14.30
2018-01-30T12:18:28.778Z,13.90
2018-01-30T12:19:28.752Z,14.70
2018-01-30T12:20:28.725Z,13.50
2018-01-30T12:21:28.701Z,14.10
2018-01-30T12:22:28.680Z,14.40
2018-01-30T12:23:28.651Z,14.90
2018-01-30T12:24:28.659Z,14.50
2018-01-30T12:25:28.603Z,15.40
2018-01-30T12:26:28.597Z,14.50
2018-01-30T12:27:28.551Z,15.30
2018-01-30T12:28:28.527Z,14.30
2018-01-30T12:29:28.504Z,14.60
2018-01-30T12:30:28.487Z,14.40
2018-01-30T12:31:28.449Z,14.80
2018-01-30T12:32:28.427Z,14.10
2018-01-30T12:33:28.430Z,14.90
2018-01-30T12:34:28.374Z,14.60
2018-01-30T12:35:28.352Z,14.10
2018-01-30T12:36:28.333Z,13.40
2018-01-30T12:37:28.305Z,14.30
2018-01-30T12:38:28.296Z,14.10
2018-01-30T12:39:28.256Z,14.70
2018-01-30T12:40:28.236Z,14.10
2018-01-30T12:41:28.214Z,13.50
2018-01-30T12:42:28.190Z,13.90
2018-01-30T12:43:28.167Z,12.90
2018-01-30T12:44:28.152Z,13.40
2018-01-30T12:45:28.121Z,13.90
2018-01-30T12:46:28.095Z,14.40
2018-01-30T12:47:28.074Z,13.20
2018-01-30T12:48:28.054Z,13.90
2018-01-30T12:49:28.030Z,14.30
2018-01-30T12:50:28.008Z,13.70
2018-01-30T12:51:27.997Z,13.20
2018-01-30T12:52:27.962Z,13.00